Archival Weather

Chicago O'Hare International

Chicago, Illinois (KORD)

Report from: Thursday, March 21, 2024 10:51 PM CDT
Current time: Tuesday, May 21, 2024 10:54 AM CDT

Current weather – Weather history – Daily summaries
Weather forecast

Temperature2.2°C (36.0°F)
Wind chill-2.5°C (27.5°F)
Dew point-6.7°C (19.9°F)
Winds 11 kts (5.7 m/s, 12.7 mph) East-Southeast (110°)
Visibility10 mi. (16.1 km)
Clouds Scattered clouds 7,000 ft. (2,134 m)
Ceiling: Broken clouds 12,000 ft. (3,658 m)
Broken clouds 18,000 ft. (5,486 m)
Altimeter30.19 in.Hg (1022 mB)
Relative humidity52 %
Density altitude-1,830 ft. (-558 m)
Sea-level pressure102.3 kPa (1023 mB, 30.21 in.Hg)
Remarks System requires maintenance
Automated weather observing station with precipitation discriminator
Flight conditions Visual Meteorological Conditions
Raw dataKORD 220351Z 11011KT 10SM SCT070 BKN120 BKN180 02/M07 A3019 RMK AO2 SLP231 T00221067 $
An error has occurred. This application may no longer respond until reloaded. Reload 🗙